Time;durP1;ratioP1;P1;durP2;ratioP2;P2;SDS_P1;SDS_P2;PMS_P1;PMS_P2;Temp;Humidity;BMP_temperature;BMP_pressure;BME280_temperature;BME280_humidity;BME280_pressure;Samples;Min_cycle;Max_cycle;Signal;HPM_P1;HPM_P2
2020/12/04 00:02:07;;;;;;;5.65;3.90;;;5.50;99.90;;;;;;5049436;28;20029;-66
2020/12/04 00:04:33;;;;;;;7.35;3.78;;;5.50;99.90;;;;;;5070043;28;20535;-64
2020/12/04 00:06:59;;;;;;;6.78;3.67;;;5.50;99.90;;;;;;5060924;28;20082;-66
2020/12/04 00:09:25;;;;;;;4.88;3.92;;;5.50;99.90;;;;;;5068494;28;20039;-65
2020/12/04 00:11:51;;;;;;;4.10;3.65;;;5.50;99.90;;;;;;5068264;28;20447;-65
2020/12/04 00:14:16;;;;;;;4.35;3.72;;;5.50;99.90;;;;;;5054243;28;20085;-67
2020/12/04 00:16:42;;;;;;;4.70;3.88;;;5.50;99.90;;;;;;5055285;28;20033;-65
2020/12/04 00:19:08;;;;;;;5.40;3.67;;;5.50;99.90;;;;;;5070975;28;20099;-64
2020/12/04 00:21:33;;;;;;;3.83;3.40;;;5.50;99.90;;;;;;5072129;28;20077;-65
2020/12/04 00:23:59;;;;;;;3.65;3.10;;;5.50;99.90;;;;;;5051942;28;20090;-64
2020/12/04 00:26:24;;;;;;;3.85;3.22;;;5.60;99.90;;;;;;5067242;28;20032;-66
2020/12/04 00:28:50;;;;;;;3.33;2.75;;;5.50;99.90;;;;;;5037109;28;20028;-64
2020/12/04 00:31:16;;;;;;;4.25;3.35;;;5.50;99.90;;;;;;5057900;28;20047;-64
2020/12/04 00:33:42;;;;;;;3.08;2.78;;;5.50;99.90;;;;;;5051205;28;20083;-64
2020/12/04 00:36:08;;;;;;;3.22;2.92;;;5.50;99.90;;;;;;5055742;28;20078;-64
2020/12/04 00:38:34;;;;;;;2.92;2.72;;;5.50;99.90;;;;;;5066712;28;20478;-64
2020/12/04 00:41:00;;;;;;;3.38;2.90;;;5.50;99.90;;;;;;5070793;28;20020;-66
2020/12/04 00:43:26;;;;;;;4.40;3.25;;;5.50;99.90;;;;;;5075737;28;20660;-64
2020/12/04 00:45:51;;;;;;;3.72;3.33;;;5.50;99.90;;;;;;5071931;28;20108;-63
2020/12/04 00:48:17;;;;;;;4.35;3.08;;;5.50;99.90;;;;;;5082279;28;20032;-65
2020/12/04 00:50:42;;;;;;;3.90;2.75;;;5.50;99.90;;;;;;5040740;28;20027;-64
2020/12/04 00:53:08;;;;;;;4.30;3.15;;;5.50;99.90;;;;;;5068452;28;20054;-64
2020/12/04 00:55:36;;;;;;;3.38;2.90;;;5.50;99.90;;;;;;5069580;28;20063;-65
2020/12/04 00:58:02;;;;;;;4.18;3.33;;;5.40;99.90;;;;;;5071591;28;20533;-64
2020/12/04 01:00:28;;;;;;;4.75;2.72;;;5.50;99.90;;;;;;5062778;28;20032;-65
2020/12/04 01:02:53;;;;;;;4.55;3.22;;;5.40;99.90;;;;;;5057047;28;20493;-64
2020/12/04 01:05:19;;;;;;;3.40;2.92;;;5.50;99.90;;;;;;5033687;28;20037;-66
2020/12/04 01:07:44;;;;;;;3.95;3.17;;;5.50;99.90;;;;;;5056589;28;20024;-63
2020/12/04 01:10:10;;;;;;;3.22;2.80;;;5.40;99.90;;;;;;5070454;28;20550;-65
2020/12/04 01:12:36;;;;;;;4.05;3.05;;;5.50;99.90;;;;;;5049882;28;20032;-64
2020/12/04 01:15:01;;;;;;;3.67;3.03;;;5.40;99.90;;;;;;5068054;28;20428;-65
2020/12/04 01:17:27;;;;;;;3.90;2.85;;;5.40;99.90;;;;;;5062073;28;20517;-64
2020/12/04 01:19:53;;;;;;;3.25;2.75;;;5.40;99.90;;;;;;5070816;28;20104;-64
2020/12/04 01:22:19;;;;;;;8.48;3.25;;;5.40;99.90;;;;;;5057066;28;20023;-65
2020/12/04 01:24:45;;;;;;;3.92;3.05;;;5.50;99.90;;;;;;5071349;28;20095;-66
2020/12/04 01:27:10;;;;;;;4.05;3.15;;;5.40;99.90;;;;;;5066263;28;20539;-65
2020/12/04 01:29:36;;;;;;;4.57;3.20;;;5.40;99.90;;;;;;5052687;28;20052;-64
2020/12/04 01:32:01;;;;;;;4.65;3.10;;;5.40;99.90;;;;;;5051937;28;20040;-65
2020/12/04 01:34:27;;;;;;;4.20;3.22;;;5.40;99.90;;;;;;5065903;28;20490;-64
2020/12/04 01:36:53;;;;;;;4.63;3.28;;;5.40;99.90;;;;;;5070356;28;20584;-63
2020/12/04 01:39:18;;;;;;;3.75;3.00;;;5.40;99.90;;;;;;5056573;28;20091;-64
2020/12/04 01:41:44;;;;;;;3.55;3.03;;;5.40;99.90;;;;;;5061538;28;20402;-65
2020/12/04 01:44:09;;;;;;;7.53;3.45;;;5.40;99.90;;;;;;5065185;28;20025;-63
2020/12/04 01:46:35;;;;;;;3.90;3.28;;;5.40;99.90;;;;;;5066911;28;20048;-64
2020/12/04 01:49:01;;;;;;;4.72;3.72;;;5.40;99.90;;;;;;5059961;28;20425;-64
2020/12/04 01:51:29;;;;;;;5.13;3.40;;;5.40;99.90;;;;;;5042846;28;20024;-64
2020/12/04 01:53:55;;;;;;;4.30;3.33;;;5.30;99.90;;;;;;5060366;28;20116;-63
2020/12/04 01:56:20;;;;;;;4.60;3.15;;;5.40;99.90;;;;;;5055546;28;20129;-63
2020/12/04 01:58:46;;;;;;;4.38;3.63;;;5.40;99.90;;;;;;5066129;28;20036;-65
2020/12/04 02:01:15;;;;;;;3.42;3.08;;;5.30;99.90;;;;;;5064796;28;20024;-63
2020/12/04 02:03:42;;;;;;;4.70;3.30;;;5.40;99.90;;;;;;5070779;28;20028;-65
2020/12/04 02:06:26;;;;;;;3.55;2.85;;;5.30;99.90;;;;;;5068663;28;20040;-64
2020/12/04 02:09:00;;;;;;;3.10;2.72;;;5.30;99.90;;;;;;5076242;28;20094;-65
2020/12/04 02:11:29;;;;;;;4.10;2.90;;;5.40;99.90;;;;;;5070365;28;20121;-65
2020/12/04 02:13:55;;;;;;;3.13;2.83;;;5.40;99.90;;;;;;5050503;28;20029;-63
2020/12/04 02:16:22;;;;;;;3.35;2.60;;;5.40;99.90;;;;;;5050804;28;20052;-64
2020/12/04 02:18:49;;;;;;;3.25;2.72;;;5.40;99.90;;;;;;5062933;28;20025;-65
2020/12/04 02:21:15;;;;;;;3.85;2.65;;;5.40;99.90;;;;;;5051356;28;20540;-64
2020/12/04 02:23:45;;;;;;;3.13;2.55;;;5.40;99.90;;;;;;5068530;28;20442;-64
2020/12/04 02:26:12;;;;;;;3.00;2.70;;;5.40;99.90;;;;;;5053152;28;20013;-64
2020/12/04 02:28:38;;;;;;;2.70;2.45;;;5.40;99.90;;;;;;5061523;28;20044;-65
2020/12/04 02:31:04;;;;;;;3.00;2.70;;;5.40;99.90;;;;;;5057709;28;20032;-65
2020/12/04 02:33:34;;;;;;;4.40;2.75;;;5.40;99.90;;;;;;5055701;28;20034;-66
2020/12/04 02:36:00;;;;;;;3.58;2.88;;;5.40;99.90;;;;;;5060882;28;20078;-64
2020/12/04 02:38:26;;;;;;;4.20;2.95;;;5.40;99.90;;;;;;5059581;28;20112;-69
2020/12/04 02:40:52;;;;;;;3.20;2.78;;;5.40;99.90;;;;;;5052541;28;20108;-64
2020/12/04 02:43:19;;;;;;;3.28;2.97;;;5.40;99.90;;;;;;5059199;28;20029;-65
2020/12/04 02:45:45;;;;;;;3.10;2.60;;;5.40;99.90;;;;;;5060148;28;20048;-64
2020/12/04 02:48:11;;;;;;;2.55;2.35;;;5.40;99.90;;;;;;5064211;28;20478;-64
2020/12/04 02:50:37;;;;;;;3.45;2.13;;;5.40;99.90;;;;;;5059714;28;20039;-63
2020/12/04 02:53:02;;;;;;;2.50;2.25;;;5.40;99.90;;;;;;5060799;28;20048;-63
2020/12/04 02:55:28;;;;;;;2.92;2.40;;;5.40;99.90;;;;;;5068184;28;20028;-65
2020/12/04 02:57:53;;;;;;;2.65;2.30;;;5.50;99.90;;;;;;5069576;28;20060;-65
2020/12/04 03:00:19;;;;;;;3.60;1.92;;;5.50;99.90;;;;;;5047086;28;20373;-64
2020/12/04 03:02:45;;;;;;;5.35;2.25;;;5.50;99.90;;;;;;5067764;28;20367;-64
2020/12/04 03:05:11;;;;;;;2.60;2.40;;;5.50;99.90;;;;;;5070996;28;20164;-64
2020/12/04 03:07:37;;;;;;;2.45;2.20;;;5.50;99.90;;;;;;5065254;28;20036;-64
2020/12/04 03:10:04;;;;;;;2.35;2.15;;;5.50;99.90;;;;;;5049684;28;20124;-65
2020/12/04 03:12:30;;;;;;;2.17;1.95;;;5.50;99.90;;;;;;5065685;28;20032;-64
2020/12/04 03:14:56;;;;;;;1.90;1.73;;;5.50;99.90;;;;;;5073176;28;20020;-64
2020/12/04 03:17:21;;;;;;;3.20;1.95;;;5.60;99.90;;;;;;5066258;28;20024;-64
2020/12/04 03:19:47;;;;;;;1.65;1.55;;;5.50;99.90;;;;;;5079168;28;20024;-65
2020/12/04 03:22:12;;;;;;;1.80;1.55;;;5.60;99.90;;;;;;5084151;28;20024;-64
2020/12/04 03:24:38;;;;;;;1.92;1.67;;;5.60;99.90;;;;;;5072453;28;20051;-63
2020/12/04 03:27:03;;;;;;;2.20;1.60;;;5.60;99.90;;;;;;5073244;28;20048;-64
2020/12/04 03:29:29;;;;;;;1.77;1.60;;;5.60;99.90;;;;;;5069786;28;20032;-65
2020/12/04 03:31:54;;;;;;;3.58;1.55;;;5.60;99.90;;;;;;5068816;28;20028;-64
2020/12/04 03:34:20;;;;;;;1.95;1.38;;;5.70;99.90;;;;;;5072229;28;20100;-65
2020/12/04 03:36:45;;;;;;;1.52;1.42;;;5.80;99.90;;;;;;5053905;28;20024;-65
2020/12/04 03:39:11;;;;;;;2.33;1.08;;;5.80;99.90;;;;;;5070879;28;20032;-64
2020/12/04 03:41:36;;;;;;;1.05;1.05;;;5.90;99.90;;;;;;5067322;28;20153;-65
2020/12/04 03:44:02;;;;;;;1.27;1.02;;;6.00;99.90;;;;;;5065531;28;20032;-65
2020/12/04 03:46:28;;;;;;;4.05;0.93;;;6.10;99.90;;;;;;5066977;28;20025;-65
2020/12/04 03:48:53;;;;;;;0.95;0.80;;;6.10;99.90;;;;;;5072998;28;20032;-67
2020/12/04 03:51:19;;;;;;;1.42;0.90;;;6.20;99.90;;;;;;5073122;28;20025;-65
2020/12/04 03:53:46;;;;;;;3.85;0.98;;;6.20;99.90;;;;;;5060784;28;20032;-64
2020/12/04 03:56:12;;;;;;;0.88;0.65;;;6.30;99.90;;;;;;5071086;28;20067;-65
2020/12/04 03:58:38;;;;;;;2.85;1.08;;;6.40;99.90;;;;;;5053740;28;20052;-65
2020/12/04 04:01:03;;;;;;;1.35;1.00;;;6.50;99.90;;;;;;5068147;28;20554;-65
2020/12/04 04:03:29;;;;;;;0.85;0.85;;;6.50;99.90;;;;;;5064030;28;20032;-65
2020/12/04 04:05:54;;;;;;;1.17;1.08;;;6.50;99.90;;;;;;5061953;28;20049;-64
2020/12/04 04:08:20;;;;;;;1.25;1.00;;;6.60;99.90;;;;;;5034836;28;20508;-66
2020/12/04 04:10:45;;;;;;;1.27;0.77;;;6.60;99.90;;;;;;5064313;28;20081;-65
2020/12/04 04:13:11;;;;;;;6.60;0.80;;;6.50;99.90;;;;;;5071983;28;20033;-65
2020/12/04 04:15:36;;;;;;;2.35;1.00;;;6.50;99.90;;;;;;5071305;28;20043;-65
2020/12/04 04:18:02;;;;;;;6.28;0.88;;;6.50;99.90;;;;;;5069721;28;20031;-64
2020/12/04 04:20:27;;;;;;;1.63;0.90;;;6.50;99.90;;;;;;5075543;28;20028;-66
2020/12/04 04:22:53;;;;;;;1.60;0.80;;;6.50;99.90;;;;;;5062800;28;20021;-66
2020/12/04 04:25:18;;;;;;;4.15;1.25;;;6.60;99.90;;;;;;5071005;28;20488;-64
2020/12/04 04:27:44;;;;;;;4.00;1.05;;;6.60;99.90;;;;;;5067064;28;20528;-64
2020/12/04 04:30:09;;;;;;;2.78;1.02;;;6.70;99.90;;;;;;5068716;28;20027;-68
2020/12/04 04:32:36;;;;;;;3.20;0.98;;;6.70;99.90;;;;;;5071695;28;20070;-65
2020/12/04 04:35:02;;;;;;;6.57;1.35;;;6.80;99.90;;;;;;5068207;28;20394;-67
2020/12/04 04:37:28;;;;;;;1.65;0.80;;;6.80;99.90;;;;;;5075961;28;20025;-65
2020/12/04 04:39:53;;;;;;;3.47;1.05;;;6.80;99.90;;;;;;5066270;28;20034;-65
2020/12/04 04:42:19;;;;;;;5.65;1.42;;;6.80;99.90;;;;;;5065558;28;20035;-65
2020/12/04 04:44:45;;;;;;;2.17;1.15;;;6.80;99.90;;;;;;5067279;28;20029;-64
2020/12/04 04:47:12;;;;;;;2.28;0.77;;;6.70;99.90;;;;;;5068888;28;20116;-64
2020/12/04 04:49:45;;;;;;;1.98;0.90;;;6.80;99.90;;;;;;5069066;28;20039;-65
2020/12/04 04:52:11;;;;;;;0.82;0.82;;;6.80;99.90;;;;;;5053351;28;20017;-65
2020/12/04 04:54:42;;;;;;;1.98;1.20;;;6.90;99.90;;;;;;5070999;28;20036;-65
2020/12/04 04:57:08;;;;;;;1.85;1.40;;;6.90;99.90;;;;;;5070915;28;20063;-65
2020/12/04 04:59:34;;;;;;;0.93;0.88;;;6.90;99.90;;;;;;5069180;28;20028;-65
2020/12/04 05:01:59;;;;;;;1.63;1.10;;;6.90;99.90;;;;;;5069386;28;20516;-64
2020/12/04 05:04:25;;;;;;;1.00;0.80;;;6.90;99.90;;;;;;5078054;22;20076;-59
2020/12/04 05:06:50;;;;;;;0.80;0.80;;;6.80;99.90;;;;;;5048908;28;20033;-61
2020/12/04 05:09:25;;;;;;;6.22;1.15;;;6.90;99.90;;;;;;5047610;28;20399;-61
2020/12/04 05:11:56;;;;;;;1.75;1.00;;;6.90;99.90;;;;;;5050540;28;20017;-61
2020/12/04 05:14:23;;;;;;;3.22;1.20;;;6.90;99.90;;;;;;5048547;28;20514;-60
2020/12/04 05:16:54;;;;;;;2.80;1.05;;;6.90;99.90;;;;;;5050566;28;20037;-62
2020/12/04 05:19:34;;;;;;;1.27;0.90;;;7.00;99.90;;;;;;5049565;28;20494;-59
2020/12/04 05:22:17;;;;;;;1.25;1.00;;;7.00;99.90;;;;;;5052421;28;20049;-61
2020/12/04 05:24:44;;;;;;;5.22;1.00;;;7.10;99.90;;;;;;5047767;28;20028;-60
2020/12/04 05:27:29;;;;;;;3.45;1.27;;;7.10;99.90;;;;;;5052067;28;20537;-61
2020/12/04 05:29:59;;;;;;;2.95;0.80;;;7.10;99.90;;;;;;5058262;28;20031;-59
2020/12/04 05:32:26;;;;;;;3.35;1.40;;;7.10;99.90;;;;;;5046615;28;20022;-60
2020/12/04 05:35:05;;;;;;;3.30;1.10;;;7.20;99.90;;;;;;5047937;28;20025;-61
2020/12/04 05:37:30;;;;;;;4.75;1.10;;;7.20;99.90;;;;;;5050698;28;20063;-61
2020/12/04 05:39:56;;;;;;;3.30;0.73;;;7.20;99.90;;;;;;5038189;28;20048;-60
2020/12/04 05:42:40;;;;;;;5.57;1.00;;;7.30;99.90;;;;;;5050489;28;20028;-60
2020/12/04 05:45:06;;;;;;;3.53;1.05;;;7.30;99.90;;;;;;5049611;28;20032;-62
2020/12/04 05:47:39;;;;;;;3.05;0.90;;;7.40;99.90;;;;;;5044989;28;20025;-62
2020/12/04 05:50:07;;;;;;;1.00;0.70;;;7.40;99.90;;;;;;5046449;28;20052;-62
2020/12/04 05:52:35;;;;;;;1.30;0.60;;;7.50;99.90;;;;;;5043945;28;20566;-59
2020/12/04 05:55:05;;;;;;;1.50;0.60;;;7.60;99.90;;;;;;5048482;28;20091;-60
2020/12/04 05:57:43;;;;;;;1.50;0.63;;;7.60;99.90;;;;;;5045791;28;20025;-60
2020/12/04 06:00:09;;;;;;;1.50;0.63;;;7.70;99.90;;;;;;5046512;28;20268;-62
2020/12/04 06:02:34;;;;;;;2.33;0.73;;;7.60;99.90;;;;;;5049898;28;20529;-60
2020/12/04 06:05:00;;;;;;;1.40;0.70;;;7.60;99.90;;;;;;5050123;28;20049;-61
2020/12/04 06:07:27;;;;;;;0.47;0.45;;;7.60;99.90;;;;;;5048359;28;20032;-61
2020/12/04 06:09:56;;;;;;;1.40;0.80;;;7.60;99.90;;;;;;5049762;28;20390;-61
2020/12/04 06:12:22;;;;;;;1.50;0.60;;;7.70;99.90;;;;;;5050013;28;20029;-60
2020/12/04 06:14:48;;;;;;;6.95;0.88;;;7.60;99.90;;;;;;5050076;28;20033;-61
2020/12/04 06:17:13;;;;;;;1.90;0.30;;;7.70;99.90;;;;;;5047621;28;20442;-60
2020/12/04 06:19:41;;;;;;;0.73;0.30;;;7.70;99.90;;;;;;5049547;28;20024;-60
2020/12/04 06:22:09;;;;;;;0.38;0.38;;;7.70;99.90;;;;;;5046215;28;20033;-60
2020/12/04 06:24:55;;;;;;;1.35;0.45;;;7.60;99.90;;;;;;5045271;28;20139;-60
2020/12/04 06:27:44;;;;;;;0.13;0.10;;;7.60;99.90;;;;;;5047029;28;20483;-59
2020/12/04 06:30:12;;;;;;;3.75;0.55;;;7.60;99.90;;;;;;5046789;28;20025;-60
2020/12/04 06:32:45;;;;;;;0.10;0.10;;;7.60;99.90;;;;;;5046179;28;20043;-60
2020/12/04 06:35:11;;;;;;;0.90;0.30;;;7.60;99.90;;;;;;5044915;28;20029;-61
2020/12/04 06:37:45;;;;;;;4.13;0.30;;;7.50;99.90;;;;;;5047046;28;20396;-62
2020/12/04 06:40:31;;;;;;;4.40;0.65;;;7.50;99.90;;;;;;5047995;28;20387;-61
2020/12/04 06:42:58;;;;;;;0.20;0.10;;;7.50;99.90;;;;;;5046276;28;20525;-57
2020/12/04 06:45:45;;;;;;;0.65;0.30;;;7.40;99.90;;;;;;5047921;28;20032;-63
2020/12/04 06:48:12;;;;;;;0.17;0.15;;;7.40;99.90;;;;;;5051553;28;20429;-60
2020/12/04 06:50:43;;;;;;;1.65;0.20;;;7.40;99.90;;;;;;5052116;28;20160;-60
2020/12/04 06:53:11;;;;;;;0.70;0.40;;;7.30;99.90;;;;;;5052865;28;20020;-60
2020/12/04 06:55:37;;;;;;;0.22;0.20;;;7.20;99.90;;;;;;5054419;28;20386;-62
2020/12/04 06:58:04;;;;;;;0.85;0.30;;;7.20;99.90;;;;;;5054926;28;20028;-61
2020/12/04 07:00:30;;;;;;;0.28;0.22;;;7.10;99.90;;;;;;5036565;28;20017;-60
2020/12/04 07:02:57;;;;;;;2.10;0.30;;;7.10;99.90;;;;;;5047548;28;20513;-60
2020/12/04 07:05:24;;;;;;;0.22;0.22;;;7.10;99.90;;;;;;5053201;28;20514;-62
2020/12/04 07:07:50;;;;;;;0.40;0.30;;;7.00;99.90;;;;;;5044913;28;20028;-60
2020/12/04 07:10:15;;;;;;;0.40;0.40;;;7.00;99.90;;;;;;5051556;28;20017;-60
2020/12/04 07:12:41;;;;;;;3.30;0.35;;;7.10;99.90;;;;;;5046328;28;20029;-61
2020/12/04 07:15:07;;;;;;;2.15;0.38;;;7.10;99.90;;;;;;5049929;28;20037;-60
2020/12/04 07:17:33;;;;;;;0.50;0.50;;;7.10;99.90;;;;;;5043423;28;20097;-60
2020/12/04 07:19:59;;;;;;;1.23;0.40;;;7.10;99.90;;;;;;5047729;28;20203;-60
2020/12/04 07:22:26;;;;;;;0.47;0.40;;;7.20;99.90;;;;;;5052363;28;20029;-60
2020/12/04 07:24:53;;;;;;;0.40;0.30;;;7.20;99.90;;;;;;5053740;28;20025;-61
2020/12/04 07:27:28;;;;;;;0.63;0.43;;;7.20;99.90;;;;;;5052818;28;20029;-60
2020/12/04 07:29:53;;;;;;;0.90;0.38;;;7.20;99.90;;;;;;5056348;28;20491;-59
2020/12/04 07:32:21;;;;;;;0.20;0.20;;;7.20;99.90;;;;;;5050852;28;20037;-60
2020/12/04 07:34:47;;;;;;;1.40;0.65;;;7.30;99.90;;;;;;5050588;28;20029;-60
2020/12/04 07:37:13;;;;;;;2.63;0.50;;;7.30;99.90;;;;;;5054374;28;20027;-60
2020/12/04 07:39:40;;;;;;;2.03;0.40;;;7.30;99.90;;;;;;5045523;28;20025;-61
2020/12/04 07:42:08;;;;;;;0.20;0.20;;;7.20;99.90;;;;;;5053253;28;20021;-59
2020/12/04 07:44:50;;;;;;;0.90;0.32;;;7.20;99.90;;;;;;5063490;28;20009;-59
2020/12/04 07:47:17;;;;;;;0.60;0.50;;;7.20;99.90;;;;;;5063002;28;20018;-61
2020/12/04 07:49:56;;;;;;;1.35;0.30;;;7.30;99.90;;;;;;5064231;28;20054;-60
2020/12/04 07:52:26;;;;;;;0.68;0.28;;;7.20;99.90;;;;;;5064697;28;20577;-60
2020/12/04 07:54:58;;;;;;;0.95;0.43;;;7.20;99.90;;;;;;5041829;28;20054;-60
2020/12/04 07:57:49;;;;;;;0.30;0.20;;;7.10;99.90;;;;;;5044241;28;20552;-59
2020/12/04 08:00:15;;;;;;;2.72;0.40;;;7.10;99.90;;;;;;5043149;28;20763;-59
2020/12/04 08:02:41;;;;;;;2.67;0.35;;;7.10;99.90;;;;;;5052825;28;20103;-60
2020/12/04 08:05:07;;;;;;;0.35;0.13;;;7.00;99.90;;;;;;5052743;28;20041;-61
2020/12/04 08:07:33;;;;;;;0.35;0.35;;;7.10;99.90;;;;;;5050572;28;20104;-61
2020/12/04 08:10:00;;;;;;;1.95;0.30;;;7.10;99.90;;;;;;5052680;28;20035;-62
2020/12/04 08:12:33;;;;;;;1.35;0.35;;;7.10;99.90;;;;;;5051178;28;20032;-60
2020/12/04 08:15:01;;;;;;;0.38;0.38;;;7.10;99.90;;;;;;5051803;28;20033;-61
2020/12/04 08:17:29;;;;;;;0.47;0.47;;;7.20;99.90;;;;;;5052207;28;20017;-61
2020/12/04 08:19:59;;;;;;;0.30;0.30;;;7.20;99.90;;;;;;5052828;28;20033;-60
2020/12/04 08:22:32;;;;;;;0.90;0.45;;;7.30;99.90;;;;;;5051878;28;20360;-60
2020/12/04 08:25:18;;;;;;;0.40;0.40;;;7.40;99.90;;;;;;5051391;28;20120;-60
2020/12/04 08:27:45;;;;;;;1.33;0.50;;;7.40;99.90;;;;;;5049475;28;20035;-60
2020/12/04 08:30:17;;;;;;;0.60;0.60;;;7.30;99.90;;;;;;5048769;28;20021;-62
2020/12/04 08:33:06;;;;;;;0.60;0.60;;;7.30;99.90;;;;;;5051404;28;21357;-60
2020/12/04 08:35:32;;;;;;;1.30;0.82;;;7.30;99.90;;;;;;5043040;28;20044;-61
2020/12/04 08:38:07;;;;;;;2.15;0.70;;;7.30;99.90;;;;;;5049935;28;20021;-61
2020/12/04 08:40:33;;;;;;;0.95;0.80;;;7.40;99.90;;;;;;5051007;28;20021;-58
2020/12/04 08:43:09;;;;;;;0.52;0.50;;;7.30;99.90;;;;;;5052143;28;20033;-59
2020/12/04 08:45:35;;;;;;;0.63;0.63;;;7.30;99.90;;;;;;5032638;28;20070;-60
2020/12/04 08:48:11;;;;;;;2.40;0.40;;;7.30;99.90;;;;;;5050557;28;20033;-63
2020/12/04 08:50:57;;;;;;;0.30;0.30;;;7.30;99.90;;;;;;5048885;28;20044;-60
2020/12/04 08:53:24;;;;;;;1.52;0.52;;;7.30;99.90;;;;;;5051392;28;20025;-60
2020/12/04 08:55:56;;;;;;;3.17;0.52;;;7.30;99.90;;;;;;5045494;28;20433;-61
2020/12/04 08:58:23;;;;;;;0.70;0.52;;;7.30;99.90;;;;;;5051534;28;20429;-61
2020/12/04 09:00:50;;;;;;;1.67;0.40;;;7.30;99.90;;;;;;5050466;28;20406;-62
2020/12/04 09:03:18;;;;;;;2.92;0.52;;;7.30;99.90;;;;;;5051730;28;20475;-60
2020/12/04 09:05:43;;;;;;;0.50;0.45;;;7.30;99.90;;;;;;5045446;28;20489;-63
2020/12/04 09:08:09;;;;;;;0.55;0.55;;;7.30;99.90;;;;;;5050511;28;20107;-63
2020/12/04 09:10:36;;;;;;;1.55;0.77;;;7.30;99.90;;;;;;5050544;28;20108;-61
2020/12/04 09:13:02;;;;;;;0.30;0.30;;;7.30;99.90;;;;;;5051640;28;20021;-62
2020/12/04 09:15:29;;;;;;;0.85;0.60;;;7.30;99.90;;;;;;5050158;28;20024;-62
2020/12/04 09:17:55;;;;;;;2.28;0.68;;;7.40;99.90;;;;;;5050756;28;20095;-62
2020/12/04 09:20:20;;;;;;;2.65;0.50;;;7.40;99.90;;;;;;5048492;28;20017;-60
2020/12/04 09:22:46;;;;;;;0.40;0.40;;;7.40;99.90;;;;;;5046212;28;20033;-62
2020/12/04 09:25:14;;;;;;;0.50;0.50;;;7.40;99.90;;;;;;5051741;28;20552;-61
2020/12/04 09:27:40;;;;;;;2.05;0.45;;;7.40;99.90;;;;;;5046777;28;20025;-61
2020/12/04 09:30:09;;;;;;;1.95;0.68;;;7.40;99.90;;;;;;5050238;28;20438;-61
2020/12/04 09:32:34;;;;;;;0.50;0.45;;;7.40;99.90;;;;;;5050329;28;20029;-61
2020/12/04 09:35:00;;;;;;;1.13;0.68;;;7.40;99.90;;;;;;5050628;28;20033;-61
2020/12/04 09:37:28;;;;;;;0.68;0.55;;;7.40;99.90;;;;;;5050336;28;20036;-61
2020/12/04 09:39:56;;;;;;;0.40;0.40;;;7.40;99.90;;;;;;5030514;28;20064;-61
2020/12/04 09:42:24;;;;;;;0.63;0.50;;;7.50;99.90;;;;;;5049375;28;20067;-61
2020/12/04 09:44:51;;;;;;;3.63;0.70;;;7.50;99.90;;;;;;5050132;28;20384;-61
2020/12/04 09:47:18;;;;;;;1.15;0.70;;;7.40;99.90;;;;;;5050820;28;20024;-61
2020/12/04 09:49:44;;;;;;;2.60;0.63;;;7.40;99.90;;;;;;5041098;28;20021;-60
2020/12/04 09:52:12;;;;;;;0.50;0.50;;;7.40;99.90;;;;;;5048590;28;20075;-61
2020/12/04 09:54:39;;;;;;;1.65;0.80;;;7.40;99.90;;;;;;5049580;28;20405;-61
2020/12/04 09:57:06;;;;;;;0.47;0.47;;;7.40;99.90;;;;;;5030402;28;20041;-62
2020/12/04 09:59:31;;;;;;;2.10;0.90;;;7.40;99.90;;;;;;5041430;28;20021;-60
2020/12/04 10:01:57;;;;;;;2.47;0.50;;;7.40;99.90;;;;;;5045111;28;20021;-62
2020/12/04 10:04:24;;;;;;;0.93;0.77;;;7.40;99.90;;;;;;5050438;28;20017;-61
2020/12/04 10:06:50;;;;;;;0.50;0.50;;;7.40;99.90;;;;;;5051248;28;20032;-62
2020/12/04 10:09:16;;;;;;;1.98;1.00;;;7.40;99.90;;;;;;5049353;28;20036;-61
2020/12/04 10:11:42;;;;;;;1.65;0.73;;;7.40;99.90;;;;;;5050406;28;20029;-60
2020/12/04 10:14:08;;;;;;;1.13;0.70;;;7.40;99.90;;;;;;5045934;28;20021;-60
2020/12/04 10:16:33;;;;;;;1.60;0.40;;;7.50;99.90;;;;;;5051034;28;20025;-60
2020/12/04 10:18:59;;;;;;;2.05;0.40;;;7.50;99.90;;;;;;5049334;28;20099;-60
2020/12/04 10:21:32;;;;;;;0.68;0.30;;;7.50;99.90;;;;;;5037380;28;20515;-61
2020/12/04 10:23:57;;;;;;;0.95;0.50;;;7.50;99.90;;;;;;5039357;28;20536;-62
2020/12/04 10:26:23;;;;;;;0.28;0.28;;;7.50;99.90;;;;;;5047664;28;20021;-61
2020/12/04 10:28:48;;;;;;;2.03;0.50;;;7.50;99.90;;;;;;5050484;28;20037;-60
2020/12/04 10:31:14;;;;;;;4.15;0.50;;;7.50;99.90;;;;;;5049936;28;20024;-60
2020/12/04 10:33:40;;;;;;;0.65;0.40;;;7.50;99.90;;;;;;5049100;28;20032;-62
2020/12/04 10:36:06;;;;;;;3.42;0.50;;;7.50;99.90;;;;;;5050509;28;20475;-60
2020/12/04 10:38:32;;;;;;;2.47;0.73;;;7.50;99.90;;;;;;5047655;28;20029;-62
2020/12/04 10:40:58;;;;;;;3.15;0.90;;;7.40;99.90;;;;;;5038319;28;20096;-60
2020/12/04 10:43:25;;;;;;;5.00;0.90;;;7.40;99.90;;;;;;5049245;28;20048;-60
2020/12/04 10:45:51;;;;;;;11.00;1.15;;;7.40;99.90;;;;;;5048878;28;20029;-62
2020/12/04 10:48:16;;;;;;;1.15;0.65;;;7.30;99.90;;;;;;5049647;28;20645;-58
2020/12/04 10:50:43;;;;;;;0.60;0.60;;;7.30;99.90;;;;;;5048131;28;20036;-60
2020/12/04 10:53:09;;;;;;;1.25;0.70;;;7.30;99.90;;;;;;5048386;28;20427;-60
2020/12/04 10:55:34;;;;;;;3.72;0.88;;;7.20;99.90;;;;;;5042215;28;20025;-60
2020/12/04 10:58:00;;;;;;;0.60;0.60;;;7.20;99.90;;;;;;5050197;28;20033;-60
2020/12/04 11:00:25;;;;;;;0.90;0.73;;;7.20;99.90;;;;;;5047992;28;20020;-63
2020/12/04 11:02:56;;;;;;;0.95;0.70;;;7.30;99.90;;;;;;5055117;28;20029;-60
2020/12/04 11:05:31;;;;;;;2.92;0.70;;;7.30;99.90;;;;;;5072910;23;20540;-65
2020/12/04 11:07:58;;;;;;;1.95;0.60;;;7.40;99.90;;;;;;5069539;28;20067;-65
2020/12/04 11:10:23;;;;;;;0.52;0.45;;;7.40;99.90;;;;;;5064839;28;20025;-64
2020/12/04 11:12:49;;;;;;;1.08;0.60;;;7.40;99.90;;;;;;5071201;28;20107;-65
2020/12/04 11:15:14;;;;;;;1.95;0.70;;;7.40;99.90;;;;;;5063022;28;20052;-65
2020/12/04 11:17:40;;;;;;;5.50;1.10;;;7.40;99.90;;;;;;5072813;28;20056;-63
2020/12/04 11:20:06;;;;;;;1.58;0.50;;;7.40;99.90;;;;;;5071881;28;20025;-64
2020/12/04 11:22:34;;;;;;;2.35;0.70;;;7.40;99.90;;;;;;5071580;28;20017;-64
2020/12/04 11:25:01;;;;;;;1.83;0.70;;;7.40;99.90;;;;;;5074441;28;20017;-64
2020/12/04 11:27:27;;;;;;;0.75;0.47;;;7.40;99.90;;;;;;5070585;28;20024;-65
2020/12/04 11:29:52;;;;;;;1.33;1.10;;;7.30;99.90;;;;;;5067304;28;20067;-63
2020/12/04 11:32:18;;;;;;;0.50;0.43;;;7.30;99.90;;;;;;5072898;28;20024;-64
2020/12/04 11:34:44;;;;;;;1.33;0.70;;;7.30;99.90;;;;;;5069712;28;20035;-66
2020/12/04 11:37:10;;;;;;;0.80;0.70;;;7.30;99.90;;;;;;5072367;28;20028;-64
2020/12/04 11:39:39;;;;;;;1.85;0.70;;;7.30;99.90;;;;;;5069493;28;20067;-66
2020/12/04 11:42:11;;;;;;;0.65;0.65;;;7.30;99.90;;;;;;5045442;28;20047;-66
2020/12/04 11:44:37;;;;;;;1.10;0.52;;;7.40;99.90;;;;;;5059513;28;20086;-65
2020/12/04 11:47:03;;;;;;;0.73;0.50;;;7.50;99.90;;;;;;5068579;28;20478;-64
2020/12/04 11:49:28;;;;;;;0.65;0.65;;;7.40;99.90;;;;;;5056766;28;20504;-64
2020/12/04 11:51:55;;;;;;;0.40;0.40;;;7.40;99.90;;;;;;5071216;28;20024;-65
2020/12/04 11:54:20;;;;;;;0.98;0.60;;;7.40;99.90;;;;;;5075582;28;20028;-65
2020/12/04 11:56:47;;;;;;;2.22;0.52;;;7.40;99.90;;;;;;5071839;28;20363;-65
2020/12/04 11:59:13;;;;;;;0.60;0.60;;;7.50;99.90;;;;;;5049008;28;20055;-64
2020/12/04 12:01:39;;;;;;;0.47;0.47;;;7.50;99.90;;;;;;5027817;28;20104;-64
2020/12/04 12:04:05;;;;;;;0.55;0.47;;;7.50;99.90;;;;;;5064362;28;20094;-65
2020/12/04 12:06:30;;;;;;;1.17;0.68;;;7.50;99.90;;;;;;5074461;28;20051;-65
2020/12/04 12:08:56;;;;;;;0.35;0.35;;;7.40;99.90;;;;;;5072605;28;20024;-64
2020/12/04 12:11:22;;;;;;;1.13;0.82;;;7.50;99.90;;;;;;5072969;28;20051;-65
2020/12/04 12:13:48;;;;;;;1.35;0.80;;;7.40;99.90;;;;;;5067014;28;20433;-64
2020/12/04 12:16:15;;;;;;;0.82;0.70;;;7.40;99.90;;;;;;5055520;28;20060;-65
2020/12/04 12:18:40;;;;;;;1.23;0.80;;;7.50;99.90;;;;;;5069241;28;20089;-67
2020/12/04 12:21:06;;;;;;;1.02;0.73;;;7.50;99.90;;;;;;5070721;28;20013;-65
2020/12/04 12:23:31;;;;;;;0.82;0.73;;;7.50;99.90;;;;;;5075817;28;20454;-65
2020/12/04 12:25:57;;;;;;;0.70;0.70;;;7.50;99.90;;;;;;5069136;28;20474;-64
2020/12/04 12:28:22;;;;;;;1.17;0.65;;;7.50;99.90;;;;;;5071337;28;20020;-65
2020/12/04 12:30:48;;;;;;;0.75;0.75;;;7.40;99.90;;;;;;5070363;28;20511;-66
2020/12/04 12:33:13;;;;;;;1.05;0.90;;;7.40;99.90;;;;;;5072067;28;20032;-65
2020/12/04 12:35:39;;;;;;;1.00;0.90;;;7.40;99.90;;;;;;5053912;28;20394;-66
2020/12/04 12:38:04;;;;;;;0.80;0.80;;;7.40;99.90;;;;;;5058469;28;20362;-65
2020/12/04 12:40:30;;;;;;;1.42;0.77;;;7.40;99.90;;;;;;5074391;28;20027;-65
2020/12/04 12:42:55;;;;;;;0.77;0.77;;;7.40;99.90;;;;;;5071746;28;20032;-65
2020/12/04 12:45:21;;;;;;;0.70;0.70;;;7.40;99.90;;;;;;5064733;28;20052;-65
2020/12/04 12:47:47;;;;;;;3.58;0.50;;;7.40;99.90;;;;;;5056230;28;20016;-64
2020/12/04 12:50:13;;;;;;;1.60;0.43;;;7.40;99.90;;;;;;5067017;28;20083;-65
2020/12/04 12:52:38;;;;;;;1.13;0.50;;;7.40;99.90;;;;;;5056299;28;20039;-65
2020/12/04 12:55:05;;;;;;;1.20;0.50;;;7.40;99.90;;;;;;5064410;28;20086;-65
2020/12/04 12:57:31;;;;;;;0.60;0.60;;;7.40;99.90;;;;;;5057779;28;20053;-68
2020/12/04 12:59:56;;;;;;;0.95;0.77;;;7.40;99.90;;;;;;5068859;28;20078;-64